Terminal Aerodrome Forecast
Issued by NWS

Home | Current Version | Previous Version | Text Only | Print | Product List | Glossary On
Versions: 1 2 3 4 5 6 7 8 9 10 11 12 13 14 15 16 17 18
195
FTUS43 KDVN 271736
TAFBRL
TAF
KBRL 271736Z 2718/2818 28013G20KT P6SM SKC
     FM272300 28008KT P6SM SCT050
     FM280800 33007KT P6SM BKN040
     FM281400 35011KT P6SM BKN025=

USA.gov is the U.S. government's official web portal to all federal, state and local government web resources and services.